createdAt,value
2023-04-04T00:00:18.922Z,101144.34
2023-04-04T00:05:20.956Z,101141.53
2023-04-04T00:10:23.614Z,101138.38
2023-04-04T00:15:25.572Z,101138.00
2023-04-04T00:20:27.384Z,101136.59
2023-04-04T00:25:29.158Z,101128.97
2023-04-04T00:30:31.617Z,101120.81
2023-04-04T00:35:33.366Z,101124.16
2023-04-04T00:40:42.460Z,101125.13
2023-04-04T00:45:44.342Z,101121.69
2023-04-04T00:50:46.095Z,101113.25
2023-04-04T00:55:47.792Z,101120.47
2023-04-04T01:00:49.882Z,101103.75
2023-04-04T01:05:51.681Z,101113.41
2023-04-04T01:10:53.435Z,101107.56
2023-04-04T01:15:56.284Z,101101.97
2023-04-04T01:21:02.284Z,101105.09
2023-04-04T01:26:04.625Z,101094.97
2023-04-04T01:31:12.501Z,101101.84
2023-04-04T01:36:23.096Z,101096.63
2023-04-04T01:41:25.562Z,101094.72
2023-04-04T01:46:32.470Z,101091.78
2023-04-04T01:51:35.046Z,101084.22
2023-04-04T01:56:36.850Z,101078.19
2023-04-04T02:01:39.022Z,101074.75
2023-04-04T02:06:41.499Z,101067.97
2023-04-04T02:11:43.293Z,101065.13
2023-04-04T02:16:46.051Z,101061.75
2023-04-04T02:21:48.002Z,101064.66
2023-04-04T02:26:49.639Z,101067.50
2023-04-04T02:31:51.469Z,101060.75
2023-04-04T02:36:53.337Z,101059.94
2023-04-04T02:41:57.116Z,101056.78
2023-04-04T02:46:58.944Z,101061.94
2023-04-04T02:52:05.084Z,101062.50
2023-04-04T02:57:11.505Z,101050.84
2023-04-04T03:02:13.620Z,101044.25
2023-04-04T03:07:15.694Z,101057.16
2023-04-04T03:12:20.551Z,101059.91
2023-04-04T03:17:23.267Z,101055.97
2023-04-04T03:22:25.182Z,101054.75
2023-04-04T03:27:26.948Z,101055.53
2023-04-04T03:32:28.845Z,101050.44
2023-04-04T03:37:30.975Z,101055.13
2023-04-04T03:42:36.006Z,101049.06
2023-04-04T03:47:42.597Z,101045.66
2023-04-04T03:52:44.461Z,101043.88
2023-04-04T03:57:49.009Z,101052.25
2023-04-04T04:02:53.969Z,101037.59
2023-04-04T04:07:57.829Z,101035.25
2023-04-04T04:12:59.736Z,101043.81
2023-04-04T04:18:01.719Z,101043.59
2023-04-04T04:23:03.876Z,101045.38
2023-04-04T04:28:05.721Z,101044.91
2023-04-04T04:33:08.368Z,101051.91
2023-04-04T04:38:49.583Z,101054.69
2023-04-04T04:43:52.545Z,101056.50
2023-04-04T04:48:55.176Z,101053.91
2023-04-04T04:54:02.280Z,101052.84
2023-04-04T04:59:07.446Z,101049.47
2023-04-04T05:04:12.340Z,101061.25
2023-04-04T05:09:22.682Z,101057.50
2023-04-04T05:14:25.674Z,101062.78
2023-04-04T05:19:32.984Z,101069.28
2023-04-04T05:24:36.157Z,101072.59
2023-04-04T05:29:38.624Z,101081.47
2023-04-04T05:34:40.485Z,101090.81
2023-04-04T05:39:47.324Z,101086.97
2023-04-04T05:44:49.137Z,101091.50
2023-04-04T05:49:51.070Z,101090.84
2023-04-04T05:54:54.586Z,101097.06
2023-04-04T06:00:02.407Z,101102.63
2023-04-04T06:05:06.070Z,101099.69
2023-04-04T06:10:10.993Z,101096.31
2023-04-04T06:15:13.318Z,101093.47
2023-04-04T06:20:19.141Z,101093.00
2023-04-04T06:25:24.520Z,101100.69
2023-04-04T06:30:27.349Z,101091.13
2023-04-04T06:35:29.423Z,101080.72
2023-04-04T06:40:34.140Z,101086.38
2023-04-04T06:45:36.609Z,101086.72
2023-04-04T06:50:38.690Z,101084.78
2023-04-04T06:55:44.427Z,101084.47
2023-04-04T07:00:46.268Z,101085.41
2023-04-04T07:05:47.954Z,101079.44
2023-04-04T07:10:49.717Z,101081.88
2023-04-04T07:15:51.811Z,101074.59
2023-04-04T07:20:53.496Z,101075.47
2023-04-04T07:25:55.096Z,101080.66
2023-04-04T07:31:00.844Z,101085.13
2023-04-04T07:36:03.484Z,101087.47
2023-04-04T07:41:05.171Z,101084.78
2023-04-04T07:46:07.158Z,101079.81
2023-04-04T07:51:09.267Z,101082.41
2023-04-04T07:56:11.061Z,101086.22
2023-04-04T08:01:12.708Z,101080.69
2023-04-04T08:06:14.432Z,101079.03
2023-04-04T08:11:16.514Z,101085.84
2023-04-04T08:16:18.432Z,101074.31
2023-04-04T08:21:20.216Z,101071.13
2023-04-04T08:26:22.056Z,101071.72
2023-04-04T08:31:24.241Z,101062.22
2023-04-04T08:36:25.929Z,101078.13
2023-04-04T08:41:27.884Z,101076.72
2023-04-04T08:46:30.189Z,101067.28
2023-04-04T08:51:33.209Z,101064.03
2023-04-04T08:56:35.945Z,101068.94
2023-04-04T09:01:38.084Z,101057.84
2023-04-04T09:06:40.787Z,101044.97
2023-04-04T09:11:45.363Z,101051.16
2023-04-04T09:16:47.238Z,101054.72
2023-04-04T09:21:49.602Z,101053.16
2023-04-04T09:26:53.871Z,101047.88
2023-04-04T09:31:55.644Z,101046.25
2023-04-04T09:36:58.387Z,101047.91
2023-04-04T09:42:01.467Z,101051.56
2023-04-04T09:52:37.603Z,101054.09
2023-04-04T09:57:41.536Z,101051.56
2023-04-04T10:02:47.826Z,101053.25
2023-04-04T10:07:49.508Z,101043.72
2023-04-04T10:12:52.746Z,101051.31
2023-04-04T10:17:55.567Z,101044.59
2023-04-04T10:22:58.158Z,101036.75
2023-04-04T10:27:59.784Z,101048.97
2023-04-04T10:33:07.279Z,101041.09
2023-04-04T10:38:09.711Z,101035.78
2023-04-04T10:43:12.374Z,101028.84
2023-04-04T10:48:14.597Z,101021.94
2023-04-04T10:53:16.705Z,101020.97
2023-04-04T10:58:18.760Z,101020.97
2023-04-04T11:03:21.234Z,101014.81
2023-04-04T11:08:25.427Z,101013.09
2023-04-04T11:13:29.377Z,101012.28
2023-04-04T11:18:46.117Z,101001.06
2023-04-04T11:23:47.751Z,101002.75
2023-04-04T11:28:49.519Z,101000.06
2023-04-04T11:34:00.379Z,100987.06
2023-04-04T11:39:22.773Z,100993.13
2023-04-04T11:44:30.537Z,100980.66
2023-04-04T11:49:37.444Z,100985.25
2023-04-04T11:54:40.894Z,100975.69
2023-04-04T11:59:45.372Z,100974.03
2023-04-04T12:04:48.060Z,100973.09
2023-04-04T12:09:50.639Z,100966.88
2023-04-04T12:15:00.231Z,100960.94
2023-04-04T12:20:10.663Z,100952.19
2023-04-04T12:25:12.418Z,100945.03
2023-04-04T12:30:15.905Z,100934.72
2023-04-04T12:35:18.753Z,100940.97
2023-04-04T12:40:20.591Z,100943.50
2023-04-04T12:45:23.050Z,100938.38
2023-04-04T12:50:28.371Z,100931.41
2023-04-04T12:55:31.573Z,100932.25
2023-04-04T13:00:33.787Z,100927.84
2023-04-04T13:05:36.294Z,100909.63
2023-04-04T13:11:04.935Z,100921.81
2023-04-04T13:16:08.730Z,100920.00
2023-04-04T13:21:12.228Z,100906.06
2023-04-04T13:26:14.053Z,100893.97
2023-04-04T13:31:16.179Z,100886.16
2023-04-04T13:36:17.981Z,100887.03
2023-04-04T13:41:19.783Z,100885.28
2023-04-04T13:46:21.538Z,100876.56
2023-04-04T13:51:24.649Z,100880.03
2023-04-04T13:56:26.589Z,100872.19
2023-04-04T14:01:29.108Z,100856.56
2023-04-04T14:06:31.882Z,100860.91
2023-04-04T14:11:34.456Z,100854.81
2023-04-04T14:16:36.509Z,100856.47
2023-04-04T14:21:38.571Z,100860.03
2023-04-04T14:26:40.545Z,100854.81
2023-04-04T14:31:42.617Z,100859.09
2023-04-04T14:36:44.903Z,100846.13
2023-04-04T14:41:47.013Z,100849.59
2023-04-04T14:46:53.109Z,100842.66
2023-04-04T14:51:55.078Z,100841.75
2023-04-04T14:56:57.937Z,100844.38
2023-04-04T15:02:00.460Z,100844.38
2023-04-04T15:07:03.591Z,100838.28
2023-04-04T15:12:05.616Z,100837.41
2023-04-04T15:17:07.746Z,100834.78
2023-04-04T15:22:10.593Z,100830.44
2023-04-04T15:27:12.471Z,100841.75
2023-04-04T15:32:14.448Z,100831.28
2023-04-04T15:37:17.144Z,100829.53
2023-04-04T15:42:20.311Z,100820.84
2023-04-04T15:47:22.709Z,100813.03
2023-04-04T15:52:24.678Z,100820.81
2023-04-04T15:57:27.334Z,100815.59
2023-04-04T16:02:29.390Z,100816.50
2023-04-04T16:07:32.289Z,100813.88
2023-04-04T16:12:34.152Z,100824.28
2023-04-04T16:17:36.280Z,100815.53
2023-04-04T16:22:38.187Z,100816.41
2023-04-04T16:27:40.020Z,100818.09
2023-04-04T16:32:42.023Z,100815.47
2023-04-04T16:37:43.952Z,100818.13
2023-04-04T16:42:46.252Z,100817.28
2023-04-04T16:47:48.741Z,100811.22
2023-04-04T16:52:51.358Z,100807.78
2023-04-04T16:58:29.899Z,100802.53
2023-04-04T17:03:31.917Z,100803.38
2023-04-04T17:08:33.917Z,100804.16
2023-04-04T17:13:35.728Z,100796.41
2023-04-04T17:18:37.583Z,100797.25
2023-04-04T17:23:39.754Z,100800.69
2023-04-04T17:28:42.039Z,100801.50
2023-04-04T17:33:44.169Z,100791.88
2023-04-04T17:38:46.809Z,100807.53
2023-04-04T17:49:24.976Z,100804.91
2023-04-04T17:54:27.257Z,100800.47
2023-04-04T17:59:29.617Z,100804.03
2023-04-04T18:04:31.769Z,100803.09
2023-04-04T18:09:33.719Z,100800.38
2023-04-04T18:14:35.799Z,100802.97
2023-04-04T18:19:39.081Z,100802.94
2023-04-04T18:24:42.219Z,100812.47
2023-04-04T18:29:44.367Z,100816.81
2023-04-04T18:34:46.626Z,100810.72
2023-04-04T18:39:48.661Z,100812.50
2023-04-04T18:44:53.632Z,100815.03
2023-04-04T18:49:55.697Z,100813.44
2023-04-04T18:54:57.978Z,100815.06
2023-04-04T19:00:00.742Z,100821.91
2023-04-04T19:05:04.417Z,100821.97
2023-04-04T19:10:09.372Z,100818.44
2023-04-04T19:15:11.219Z,100823.47
2023-04-04T19:20:16.348Z,100813.25
2023-04-04T19:25:18.879Z,100813.22
2023-04-04T19:30:40.086Z,100817.59
2023-04-04T19:35:59.781Z,100815.66
2023-04-04T19:41:11.936Z,100811.34
2023-04-04T19:46:33.099Z,100815.69
2023-04-04T19:52:01.624Z,100807.94
2023-04-04T19:57:08.139Z,100819.88
2023-04-04T20:02:40.413Z,100815.38
2023-04-04T20:07:42.231Z,100812.78
2023-04-04T20:12:43.996Z,100813.81
2023-04-04T20:17:46.131Z,100811.88
2023-04-04T20:22:47.931Z,100812.56
2023-04-04T20:27:49.826Z,100805.75
2023-04-04T20:32:51.665Z,100810.78
2023-04-04T20:37:53.645Z,100806.25
2023-04-04T20:42:55.340Z,100804.47
2023-04-04T20:47:58.289Z,100813.19
2023-04-04T20:53:02.995Z,100808.38
2023-04-04T20:58:09.755Z,100812.53
2023-04-04T21:03:29.874Z,100805.69
2023-04-04T21:08:50.582Z,100808.97
2023-04-04T21:13:52.418Z,100806.81
2023-04-04T21:19:01.661Z,100800.56
2023-04-04T21:24:10.328Z,100795.56
2023-04-04T21:29:22.340Z,100791.72
2023-04-04T21:34:26.517Z,100794.44
2023-04-04T21:39:30.133Z,100786.63
2023-04-04T21:44:31.844Z,100784.44
2023-04-04T21:49:33.528Z,100782.81
2023-04-04T21:54:35.166Z,100784.16
2023-04-04T21:59:36.860Z,100780.53
2023-04-04T22:04:38.715Z,100771.28
2023-04-04T22:09:42.994Z,100767.13
2023-04-04T22:14:45.801Z,100767.59
2023-04-04T22:19:58.780Z,100762.31
2023-04-04T22:25:07.117Z,100767.50
2023-04-04T22:30:09.375Z,100769.56
2023-04-04T22:35:12.390Z,100762.59
2023-04-04T22:40:14.298Z,100761.16
2023-04-04T22:45:40.746Z,100759.06
2023-04-04T22:50:42.701Z,100764.09
2023-04-04T22:55:44.559Z,100761.44
2023-04-04T23:00:46.452Z,100764.88
2023-04-04T23:05:48.104Z,100760.97
2023-04-04T23:10:49.800Z,100756.25
2023-04-04T23:15:51.690Z,100753.25
2023-04-04T23:20:53.401Z,100754.06
2023-04-04T23:25:55.064Z,100754.00
2023-04-04T23:30:56.785Z,100745.00
2023-04-04T23:35:58.536Z,100748.47
2023-04-04T23:41:00.190Z,100743.44
2023-04-04T23:46:03.344Z,100744.66
2023-04-04T23:51:05.717Z,100737.44
2023-04-04T23:56:07.772Z,100733.06
